createdAt,value
2019-01-03T00:05:03.938Z,103823.26
2019-01-03T00:10:36.322Z,103835.37
2019-01-03T00:16:03.011Z,103835.37
2019-01-03T00:21:31.041Z,103835.04
2019-01-03T00:26:57.532Z,103831.52
2019-01-03T00:32:37.364Z,103824.25
2019-01-03T00:38:14.350Z,103827.16
2019-01-03T00:43:40.259Z,103829.34
2019-01-03T00:49:08.619Z,103831.52
2019-01-03T00:54:49.210Z,103834.88
2019-01-03T01:00:12.755Z,103842.61
2019-01-03T01:05:39.395Z,103847.33
2019-01-03T01:11:19.252Z,103847.89
2019-01-03T01:17:04.109Z,103854.40
2019-01-03T01:22:49.160Z,103858.61
2019-01-03T01:28:09.598Z,103856.76
2019-01-03T01:33:37.574Z,103865.02
2019-01-03T01:39:10.304Z,103871.63
2019-01-03T01:44:35.871Z,103872.12
2019-01-03T01:49:59.598Z,103875.91
2019-01-03T01:55:44.867Z,103879.44
2019-01-03T02:01:09.613Z,103885.40
2019-01-03T02:06:32.530Z,103882.05
2019-01-03T02:12:00.363Z,103880.08
2019-01-03T02:17:34.575Z,103888.45
2019-01-03T02:23:08.612Z,103892.35
2019-01-03T02:28:40.112Z,103897.69
2019-01-03T02:34:09.392Z,103893.78
2019-01-03T02:39:45.096Z,103879.06
2019-01-03T02:45:07.492Z,103877.66
2019-01-03T02:50:46.187Z,103873.20
2019-01-03T02:56:25.229Z,103868.67
2019-01-03T03:01:54.062Z,103861.98
2019-01-03T03:07:22.927Z,103865.52
2019-01-03T03:12:59.076Z,103863.39
2019-01-03T03:18:39.017Z,103857.34
2019-01-03T03:23:57.590Z,103847.78
2019-01-03T03:29:23.315Z,103863.22
2019-01-03T03:34:57.911Z,103863.16
2019-01-03T03:40:31.212Z,103859.50
2019-01-03T03:46:10.570Z,103850.02
2019-01-03T03:51:38.531Z,103834.59
2019-01-03T03:57:11.571Z,103836.71
2019-01-03T04:02:38.207Z,103836.21
2019-01-03T04:08:23.129Z,103830.50
2019-01-03T04:14:09.229Z,103835.39
2019-01-03T04:19:42.045Z,103826.67
2019-01-03T04:25:09.383Z,103819.17
2019-01-03T04:30:35.723Z,103820.22
2019-01-03T04:36:09.171Z,103821.97
2019-01-03T04:41:34.891Z,103833.80
2019-01-03T04:47:02.438Z,103833.23
2019-01-03T04:52:29.035Z,103829.77
2019-01-03T04:57:52.584Z,103836.41
2019-01-03T05:03:39.300Z,103843.77
2019-01-03T05:09:05.737Z,103843.69
2019-01-03T05:14:34.187Z,103840.53
2019-01-03T05:20:00.269Z,103840.73
2019-01-03T05:25:42.954Z,103834.60
2019-01-03T05:31:15.303Z,103838.88
2019-01-03T05:36:56.971Z,103839.30
2019-01-03T05:42:22.849Z,103833.84
2019-01-03T05:47:50.590Z,103829.14
2019-01-03T05:53:35.299Z,103817.55
2019-01-03T05:59:05.120Z,103822.45
2019-01-03T06:04:27.750Z,103832.06
2019-01-03T06:09:58.413Z,103837.32
2019-01-03T06:15:33.671Z,103839.92
2019-01-03T06:21:06.188Z,103841.67
2019-01-03T06:26:37.415Z,103832.30
2019-01-03T06:32:09.996Z,103841.33
2019-01-03T06:37:37.057Z,103845.61
2019-01-03T06:43:25.131Z,103843.11
2019-01-03T06:49:07.752Z,103844.53
2019-01-03T06:54:52.963Z,103844.16
2019-01-03T07:00:23.876Z,103841.62
2019-01-03T07:05:50.911Z,103842.62
2019-01-03T07:11:22.090Z,103832.67
2019-01-03T07:16:50.021Z,103846.55
2019-01-03T07:22:21.447Z,103848.02
2019-01-03T07:28:05.465Z,103852.47
2019-01-03T07:33:33.250Z,103858.69
2019-01-03T07:39:01.930Z,103857.17
2019-01-03T07:44:28.932Z,103862.12
2019-01-03T07:49:55.154Z,103873.27
2019-01-03T07:55:34.851Z,103887.92
2019-01-03T08:01:02.691Z,103893.80
2019-01-03T08:06:29.697Z,103884.41
2019-01-03T08:12:05.449Z,103884.69
2019-01-03T08:17:38.973Z,103897.38
2019-01-03T08:23:09.373Z,103900.34
2019-01-03T08:28:34.810Z,103904.11
2019-01-03T08:34:14.527Z,103918.32
2019-01-03T08:39:41.808Z,103900.55
2019-01-03T08:45:14.195Z,103916.74
2019-01-03T08:50:40.454Z,103925.76
2019-01-03T08:56:14.675Z,103930.42
2019-01-03T09:02:05.179Z,103929.25
2019-01-03T09:07:40.813Z,103931.23
2019-01-03T09:13:25.894Z,103934.32
2019-01-03T09:18:59.587Z,103940.88
2019-01-03T09:24:25.295Z,103938.88
2019-01-03T09:29:45.565Z,103930.22
2019-01-03T09:35:04.871Z,103930.20
2019-01-03T09:40:33.187Z,103927.94
2019-01-03T09:45:44.480Z,103933.71
2019-01-03T09:50:57.779Z,103938.20
2019-01-03T09:56:08.035Z,103945.77
2019-01-03T10:01:18.493Z,103943.36
2019-01-03T10:06:29.341Z,103941.93
2019-01-03T10:11:41.015Z,103934.73
2019-01-03T10:16:51.723Z,103926.81
2019-01-03T10:22:07.620Z,103924.04
2019-01-03T10:27:16.686Z,103928.39
2019-01-03T10:32:25.666Z,103913.61
2019-01-03T10:37:34.914Z,103913.58
2019-01-03T10:42:49.323Z,103906.98
2019-01-03T10:48:06.410Z,103907.08
2019-01-03T10:53:16.257Z,103911.86
2019-01-03T10:58:25.270Z,103908.86
2019-01-03T11:03:33.956Z,103894.52
2019-01-03T11:08:43.366Z,103888.06
2019-01-03T11:13:56.050Z,103881.83
2019-01-03T11:19:05.060Z,103880.80
2019-01-03T11:24:18.761Z,103873.34
2019-01-03T11:29:33.284Z,103868.35
2019-01-03T11:34:43.173Z,103863.58
2019-01-03T11:39:53.028Z,103868.91
2019-01-03T11:45:05.608Z,103855.58
2019-01-03T11:50:15.812Z,103855.36
2019-01-03T11:55:23.294Z,103852.30
2019-01-03T12:00:34.169Z,103867.89
2019-01-03T12:05:46.312Z,103859.77
2019-01-03T12:10:55.317Z,103856.26
2019-01-03T12:16:03.053Z,103856.95
2019-01-03T12:21:16.706Z,103857.33
2019-01-03T12:26:30.277Z,103860.05
2019-01-03T12:31:38.682Z,103849.83
2019-01-03T12:36:50.594Z,103853.38
2019-01-03T12:42:01.321Z,103841.59
2019-01-03T12:47:09.857Z,103851.60
2019-01-03T12:52:20.636Z,103850.43
2019-01-03T12:57:33.348Z,103846.92
2019-01-03T13:02:47.888Z,103848.19
2019-01-03T13:07:59.761Z,103842.67
2019-01-03T13:13:10.094Z,103840.02
2019-01-03T13:18:19.264Z,103838.81
2019-01-03T13:23:32.394Z,103832.75
2019-01-03T13:28:40.075Z,103836.67
2019-01-03T13:33:50.451Z,103844.98
2019-01-03T13:38:58.068Z,103855.56
2019-01-03T13:44:11.670Z,103864.33
2019-01-03T13:49:20.281Z,103868.95
2019-01-03T13:54:30.345Z,103868.27
2019-01-03T13:59:39.475Z,103860.30
2019-01-03T14:04:52.592Z,103854.34
2019-01-03T14:10:04.914Z,103843.41
2019-01-03T14:15:14.436Z,103837.80
2019-01-03T14:20:24.193Z,103831.70
2019-01-03T14:25:33.703Z,103837.46
2019-01-03T14:30:45.419Z,103843.98
2019-01-03T14:35:56.995Z,103844.05
2019-01-03T14:41:05.575Z,103849.47
2019-01-03T14:46:15.760Z,103852.38
2019-01-03T14:51:26.596Z,103856.41
2019-01-03T14:56:37.298Z,103852.69
2019-01-03T15:01:49.795Z,103863.35
2019-01-03T15:06:58.659Z,103866.59
2019-01-03T15:12:06.014Z,103859.92
2019-01-03T15:17:16.934Z,103873.85
2019-01-03T15:22:27.654Z,103878.19
2019-01-03T15:27:40.516Z,103881.79
2019-01-03T15:32:50.377Z,103890.91
2019-01-03T15:37:59.552Z,103892.09
2019-01-03T15:43:09.504Z,103909.00
2019-01-03T15:48:17.298Z,103906.78
2019-01-03T15:53:27.037Z,103910.24
2019-01-03T15:58:38.366Z,103904.70
2019-01-03T16:03:49.992Z,103913.06
2019-01-03T16:08:58.818Z,103912.52
2019-01-03T16:14:11.402Z,103915.35
2019-01-03T16:19:25.921Z,103922.91
2019-01-03T16:24:41.458Z,103928.83
2019-01-03T16:29:52.315Z,103934.42
2019-01-03T16:35:04.066Z,103936.53
2019-01-03T16:40:13.381Z,103934.85
2019-01-03T16:45:20.708Z,103932.84
2019-01-03T16:50:28.300Z,103929.48
2019-01-03T16:55:40.831Z,103928.02
2019-01-03T17:00:50.666Z,103930.30
2019-01-03T17:06:00.928Z,103940.08
2019-01-03T17:11:12.293Z,103936.00
2019-01-03T17:16:22.185Z,103937.33
2019-01-03T17:21:32.962Z,103944.86
2019-01-03T17:26:41.135Z,103939.63
2019-01-03T17:31:52.022Z,103921.34
2019-01-03T17:37:03.339Z,103913.89
2019-01-03T17:42:14.946Z,103916.64
2019-01-03T17:47:25.038Z,103904.01
2019-01-03T17:52:35.980Z,103915.83
2019-01-03T17:57:48.733Z,103903.45
2019-01-03T18:02:59.834Z,103889.30
2019-01-03T18:08:13.417Z,103864.89
2019-01-03T18:13:24.673Z,103871.52
2019-01-03T18:18:39.938Z,103871.33
2019-01-03T18:23:50.109Z,103884.44
2019-01-03T18:29:01.066Z,103910.20
2019-01-03T18:34:11.135Z,103904.86
2019-01-03T18:39:21.121Z,103905.52
2019-01-03T18:44:33.133Z,103890.83
2019-01-03T18:49:45.409Z,103908.53
2019-01-03T18:54:57.505Z,103917.79
2019-01-03T19:00:12.326Z,103923.27
2019-01-03T19:05:23.943Z,103919.07
2019-01-03T19:10:54.722Z,103918.89
2019-01-03T19:16:42.680Z,103925.80
2019-01-03T19:21:52.881Z,103927.87
2019-01-03T19:27:05.029Z,103931.47
2019-01-03T19:32:18.445Z,103935.55
2019-01-03T19:37:31.044Z,103952.61
2019-01-03T19:42:47.011Z,103953.36
2019-01-03T19:47:54.842Z,103957.92
2019-01-03T19:53:04.056Z,103957.92
2019-01-03T19:58:15.984Z,103950.91
2019-01-03T20:03:27.719Z,103947.66
2019-01-03T20:08:36.806Z,103966.64
2019-01-03T20:13:44.858Z,103962.80
2019-01-03T20:18:58.240Z,103961.17
2019-01-03T20:24:10.432Z,103948.69
2019-01-03T20:29:24.230Z,103940.73
2019-01-03T20:34:36.025Z,103930.58
2019-01-03T20:39:48.709Z,103935.50
2019-01-03T20:44:56.833Z,103928.74
2019-01-03T20:50:05.380Z,103930.58
2019-01-03T20:55:37.149Z,103930.70
2019-01-03T21:00:49.003Z,103927.38
2019-01-03T21:06:01.720Z,103939.32
2019-01-03T21:11:09.734Z,103950.72
2019-01-03T21:16:19.180Z,103926.91
2019-01-03T21:21:28.510Z,103938.23
2019-01-03T21:26:37.676Z,103939.49
2019-01-03T21:31:50.598Z,103938.84
2019-01-03T21:36:58.718Z,103936.08
2019-01-03T21:42:13.449Z,103932.10
2019-01-03T21:47:23.203Z,103939.80
2019-01-03T21:52:36.838Z,103935.28
2019-01-03T21:57:47.608Z,103937.64
2019-01-03T22:03:01.717Z,103932.28
2019-01-03T22:08:07.168Z,103931.42
2019-01-03T22:13:18.539Z,103927.22
2019-01-03T22:18:28.482Z,103926.44
2019-01-03T22:23:43.465Z,103933.72
2019-01-03T22:28:55.140Z,103914.02
2019-01-03T22:34:07.059Z,103916.49
2019-01-03T22:39:19.814Z,103916.49
2019-01-03T22:44:33.496Z,103929.33
2019-01-03T22:49:43.415Z,103923.20
2019-01-03T22:54:50.296Z,103928.04
2019-01-03T23:00:00.326Z,103913.11
2019-01-03T23:05:14.347Z,103913.47
2019-01-03T23:10:23.170Z,103915.85
2019-01-03T23:15:33.156Z,103902.97
2019-01-03T23:20:40.916Z,103900.15
2019-01-03T23:25:59.333Z,103898.70
2019-01-03T23:31:07.437Z,103888.39
2019-01-03T23:36:17.325Z,103891.84
2019-01-03T23:41:26.266Z,103894.52
2019-01-03T23:46:36.578Z,103899.13
2019-01-03T23:51:50.146Z,103911.08
2019-01-03T23:57:01.957Z,103913.45
